sensor_id;sensor_type;location;lat;lon;timestamp;P1;durP1;ratioP1;P2;durP2;ratioP2
26598;SDS011;14240;51.064;16.612;2023-02-28T00:01:12;51.93;;;20.80;;
26598;SDS011;14240;51.064;16.612;2023-02-28T00:03:39;46.15;;;18.83;;
26598;SDS011;14240;51.064;16.612;2023-02-28T00:06:05;48.72;;;19.55;;
26598;SDS011;14240;51.064;16.612;2023-02-28T00:08:32;27.88;;;13.90;;
26598;SDS011;14240;51.064;16.612;2023-02-28T00:11:02;39.55;;;16.67;;
26598;SDS011;14240;51.064;16.612;2023-02-28T00:13:30;32.58;;;15.40;;
26598;SDS011;14240;51.064;16.612;2023-02-28T00:16:03;35.85;;;15.85;;
26598;SDS011;14240;51.064;16.612;2023-02-28T00:18:30;30.65;;;14.40;;
26598;SDS011;14240;51.064;16.612;2023-02-28T00:20:57;38.08;;;16.00;;
26598;SDS011;14240;51.064;16.612;2023-02-28T00:23:23;33.42;;;15.48;;
26598;SDS011;14240;51.064;16.612;2023-02-28T00:25:50;34.70;;;15.25;;
26598;SDS011;14240;51.064;16.612;2023-02-28T00:28:16;34.75;;;15.70;;
26598;SDS011;14240;51.064;16.612;2023-02-28T00:30:42;41.08;;;16.20;;
26598;SDS011;14240;51.064;16.612;2023-02-28T00:33:08;37.13;;;17.15;;
26598;SDS011;14240;51.064;16.612;2023-02-28T00:35:33;41.55;;;16.80;;
26598;SDS011;14240;51.064;16.612;2023-02-28T00:37:59;38.13;;;16.63;;
26598;SDS011;14240;51.064;16.612;2023-02-28T00:40:25;37.13;;;16.30;;
26598;SDS011;14240;51.064;16.612;2023-02-28T00:42:51;39.22;;;17.67;;
26598;SDS011;14240;51.064;16.612;2023-02-28T00:45:17;36.45;;;16.67;;
26598;SDS011;14240;51.064;16.612;2023-02-28T00:47:42;39.47;;;16.77;;
26598;SDS011;14240;51.064;16.612;2023-02-28T00:50:08;34.80;;;16.60;;
26598;SDS011;14240;51.064;16.612;2023-02-28T00:52:35;37.55;;;15.68;;
26598;SDS011;14240;51.064;16.612;2023-02-28T00:55:00;40.95;;;16.50;;
26598;SDS011;14240;51.064;16.612;2023-02-28T00:57:26;49.80;;;19.10;;
26598;SDS011;14240;51.064;16.612;2023-02-28T00:59:52;55.53;;;19.20;;
26598;SDS011;14240;51.064;16.612;2023-02-28T01:02:19;46.50;;;19.10;;
26598;SDS011;14240;51.064;16.612;2023-02-28T01:04:46;43.20;;;20.13;;
26598;SDS011;14240;51.064;16.612;2023-02-28T01:07:12;36.15;;;16.60;;
26598;SDS011;14240;51.064;16.612;2023-02-28T01:09:39;34.67;;;13.95;;
26598;SDS011;14240;51.064;16.612;2023-02-28T01:12:06;39.67;;;18.50;;
26598;SDS011;14240;51.064;16.612;2023-02-28T01:14:32;47.67;;;19.90;;
26598;SDS011;14240;51.064;16.612;2023-02-28T01:16:59;51.20;;;18.45;;
26598;SDS011;14240;51.064;16.612;2023-02-28T01:19:25;50.85;;;20.20;;
26598;SDS011;14240;51.064;16.612;2023-02-28T01:21:51;40.92;;;19.20;;
26598;SDS011;14240;51.064;16.612;2023-02-28T01:24:17;49.17;;;21.45;;
26598;SDS011;14240;51.064;16.612;2023-02-28T01:26:43;52.38;;;23.38;;
26598;SDS011;14240;51.064;16.612;2023-02-28T01:29:08;48.05;;;19.25;;
26598;SDS011;14240;51.064;16.612;2023-02-28T01:31:34;47.72;;;19.50;;
26598;SDS011;14240;51.064;16.612;2023-02-28T01:34:00;54.22;;;19.40;;
26598;SDS011;14240;51.064;16.612;2023-02-28T01:36:26;48.17;;;19.90;;
26598;SDS011;14240;51.064;16.612;2023-02-28T01:38:52;44.90;;;19.60;;
26598;SDS011;14240;51.064;16.612;2023-02-28T01:41:22;55.65;;;19.77;;
26598;SDS011;14240;51.064;16.612;2023-02-28T01:46:15;41.88;;;19.50;;
26598;SDS011;14240;51.064;16.612;2023-02-28T01:48:43;46.65;;;19.27;;
26598;SDS011;14240;51.064;16.612;2023-02-28T01:51:17;40.17;;;18.38;;
26598;SDS011;14240;51.064;16.612;2023-02-28T01:53:47;39.17;;;18.40;;
26598;SDS011;14240;51.064;16.612;2023-02-28T01:56:19;47.65;;;20.10;;
26598;SDS011;14240;51.064;16.612;2023-02-28T01:58:49;42.42;;;19.00;;
26598;SDS011;14240;51.064;16.612;2023-02-28T02:01:17;45.70;;;19.48;;
26598;SDS011;14240;51.064;16.612;2023-02-28T02:03:49;42.70;;;18.60;;
26598;SDS011;14240;51.064;16.612;2023-02-28T02:06:22;41.35;;;19.17;;
26598;SDS011;14240;51.064;16.612;2023-02-28T02:08:56;59.25;;;24.77;;
26598;SDS011;14240;51.064;16.612;2023-02-28T02:11:22;47.17;;;19.90;;
26598;SDS011;14240;51.064;16.612;2023-02-28T02:14:03;47.92;;;19.90;;
26598;SDS011;14240;51.064;16.612;2023-02-28T02:29:47;44.67;;;18.65;;
26598;SDS011;14240;51.064;16.612;2023-02-28T02:32:28;53.42;;;22.48;;
26598;SDS011;14240;51.064;16.612;2023-02-28T02:37:40;48.45;;;19.70;;
26598;SDS011;14240;51.064;16.612;2023-02-28T02:40:15;41.85;;;17.25;;
26598;SDS011;14240;51.064;16.612;2023-02-28T02:48:01;38.22;;;16.98;;
26598;SDS011;14240;51.064;16.612;2023-02-28T02:50:34;44.47;;;18.27;;
26598;SDS011;14240;51.064;16.612;2023-02-28T02:53:07;46.60;;;19.77;;
26598;SDS011;14240;51.064;16.612;2023-02-28T02:55:37;51.33;;;20.00;;
26598;SDS011;14240;51.064;16.612;2023-02-28T02:58:07;45.15;;;18.33;;
26598;SDS011;14240;51.064;16.612;2023-02-28T03:00:37;45.58;;;19.25;;
26598;SDS011;14240;51.064;16.612;2023-02-28T03:05:49;48.53;;;17.50;;
26598;SDS011;14240;51.064;16.612;2023-02-28T03:08:15;38.97;;;17.30;;
26598;SDS011;14240;51.064;16.612;2023-02-28T03:10:42;45.53;;;18.50;;
26598;SDS011;14240;51.064;16.612;2023-02-28T03:21:26;44.75;;;19.50;;
26598;SDS011;14240;51.064;16.612;2023-02-28T03:24:13;32.70;;;14.60;;
26598;SDS011;14240;51.064;16.612;2023-02-28T03:33:08;43.10;;;17.42;;
26598;SDS011;14240;51.064;16.612;2023-02-28T03:35:36;44.38;;;19.48;;
26598;SDS011;14240;51.064;16.612;2023-02-28T03:38:07;50.95;;;20.23;;
26598;SDS011;14240;51.064;16.612;2023-02-28T03:40:41;44.15;;;19.80;;
26598;SDS011;14240;51.064;16.612;2023-02-28T03:43:12;46.15;;;19.77;;
26598;SDS011;14240;51.064;16.612;2023-02-28T03:45:45;48.08;;;20.80;;
26598;SDS011;14240;51.064;16.612;2023-02-28T03:50:46;47.97;;;18.67;;
26598;SDS011;14240;51.064;16.612;2023-02-28T03:53:16;41.35;;;17.98;;
26598;SDS011;14240;51.064;16.612;2023-02-28T03:55:50;34.53;;;17.10;;
26598;SDS011;14240;51.064;16.612;2023-02-28T03:58:37;40.00;;;17.73;;
26598;SDS011;14240;51.064;16.612;2023-02-28T04:03:53;37.80;;;18.98;;
26598;SDS011;14240;51.064;16.612;2023-02-28T04:06:20;47.40;;;18.63;;
26598;SDS011;14240;51.064;16.612;2023-02-28T04:08:47;35.03;;;17.80;;
26598;SDS011;14240;51.064;16.612;2023-02-28T04:14:04;36.03;;;16.45;;
26598;SDS011;14240;51.064;16.612;2023-02-28T04:16:31;45.35;;;17.77;;
26598;SDS011;14240;51.064;16.612;2023-02-28T04:18:58;38.45;;;16.60;;
26598;SDS011;14240;51.064;16.612;2023-02-28T04:24:04;42.13;;;18.45;;
26598;SDS011;14240;51.064;16.612;2023-02-28T04:26:31;43.30;;;18.17;;
26598;SDS011;14240;51.064;16.612;2023-02-28T04:28:59;38.53;;;18.48;;
26598;SDS011;14240;51.064;16.612;2023-02-28T04:31:25;39.78;;;17.20;;
26598;SDS011;14240;51.064;16.612;2023-02-28T04:33:51;41.55;;;19.20;;
26598;SDS011;14240;51.064;16.612;2023-02-28T04:36:17;37.53;;;16.40;;
26598;SDS011;14240;51.064;16.612;2023-02-28T04:38:43;40.85;;;18.17;;
26598;SDS011;14240;51.064;16.612;2023-02-28T04:41:10;44.88;;;17.92;;
26598;SDS011;14240;51.064;16.612;2023-02-28T04:43:36;36.80;;;17.13;;
26598;SDS011;14240;51.064;16.612;2023-02-28T04:46:03;39.40;;;17.35;;
26598;SDS011;14240;51.064;16.612;2023-02-28T04:48:30;41.08;;;17.55;;
26598;SDS011;14240;51.064;16.612;2023-02-28T04:51:05;41.33;;;18.90;;
26598;SDS011;14240;51.064;16.612;2023-02-28T04:53:36;40.53;;;17.88;;
26598;SDS011;14240;51.064;16.612;2023-02-28T04:56:02;39.63;;;17.73;;
26598;SDS011;14240;51.064;16.612;2023-02-28T04:58:29;39.05;;;17.48;;
26598;SDS011;14240;51.064;16.612;2023-02-28T05:01:01;42.47;;;17.40;;
26598;SDS011;14240;51.064;16.612;2023-02-28T05:03:42;39.75;;;17.98;;
26598;SDS011;14240;51.064;16.612;2023-02-28T05:06:09;40.25;;;18.58;;
26598;SDS011;14240;51.064;16.612;2023-02-28T05:11:02;40.00;;;16.85;;
26598;SDS011;14240;51.064;16.612;2023-02-28T05:13:29;41.63;;;18.83;;
26598;SDS011;14240;51.064;16.612;2023-02-28T05:15:55;44.78;;;18.83;;
26598;SDS011;14240;51.064;16.612;2023-02-28T05:18:21;41.83;;;19.42;;
26598;SDS011;14240;51.064;16.612;2023-02-28T05:20:46;47.10;;;19.33;;
26598;SDS011;14240;51.064;16.612;2023-02-28T05:23:13;41.90;;;19.70;;
26598;SDS011;14240;51.064;16.612;2023-02-28T05:25:39;49.55;;;19.77;;
26598;SDS011;14240;51.064;16.612;2023-02-28T05:28:06;43.05;;;18.00;;
26598;SDS011;14240;51.064;16.612;2023-02-28T05:30:32;48.83;;;19.48;;
26598;SDS011;14240;51.064;16.612;2023-02-28T05:32:58;40.58;;;18.20;;
26598;SDS011;14240;51.064;16.612;2023-02-28T05:35:25;43.55;;;19.83;;
26598;SDS011;14240;51.064;16.612;2023-02-28T05:37:51;40.97;;;17.60;;
26598;SDS011;14240;51.064;16.612;2023-02-28T05:40:17;41.08;;;19.58;;
26598;SDS011;14240;51.064;16.612;2023-02-28T05:42:45;46.53;;;18.80;;
26598;SDS011;14240;51.064;16.612;2023-02-28T05:45:11;42.28;;;20.17;;
26598;SDS011;14240;51.064;16.612;2023-02-28T05:47:37;48.83;;;20.60;;
26598;SDS011;14240;51.064;16.612;2023-02-28T05:50:04;44.30;;;21.10;;
26598;SDS011;14240;51.064;16.612;2023-02-28T05:52:30;48.20;;;21.07;;
26598;SDS011;14240;51.064;16.612;2023-02-28T05:54:56;51.28;;;21.95;;
26598;SDS011;14240;51.064;16.612;2023-02-28T05:57:22;47.70;;;21.80;;
26598;SDS011;14240;51.064;16.612;2023-02-28T05:59:48;44.15;;;21.23;;
26598;SDS011;14240;51.064;16.612;2023-02-28T06:02:14;48.78;;;20.95;;
26598;SDS011;14240;51.064;16.612;2023-02-28T06:04:42;47.90;;;21.15;;
26598;SDS011;14240;51.064;16.612;2023-02-28T06:07:08;53.00;;;20.40;;
26598;SDS011;14240;51.064;16.612;2023-02-28T06:09:35;46.85;;;20.13;;
26598;SDS011;14240;51.064;16.612;2023-02-28T06:12:02;46.92;;;19.00;;
26598;SDS011;14240;51.064;16.612;2023-02-28T06:14:30;43.38;;;18.98;;
26598;SDS011;14240;51.064;16.612;2023-02-28T06:16:57;53.05;;;19.67;;
26598;SDS011;14240;51.064;16.612;2023-02-28T06:19:24;50.85;;;20.90;;
26598;SDS011;14240;51.064;16.612;2023-02-28T06:21:51;46.55;;;19.98;;
26598;SDS011;14240;51.064;16.612;2023-02-28T06:24:21;44.78;;;20.98;;
26598;SDS011;14240;51.064;16.612;2023-02-28T06:26:48;45.75;;;20.20;;
26598;SDS011;14240;51.064;16.612;2023-02-28T06:29:15;41.40;;;18.80;;
26598;SDS011;14240;51.064;16.612;2023-02-28T06:31:44;55.47;;;20.55;;
26598;SDS011;14240;51.064;16.612;2023-02-28T06:34:11;45.60;;;19.35;;
26598;SDS011;14240;51.064;16.612;2023-02-28T06:36:38;38.95;;;19.08;;
26598;SDS011;14240;51.064;16.612;2023-02-28T06:39:04;34.88;;;16.55;;
26598;SDS011;14240;51.064;16.612;2023-02-28T06:41:30;39.83;;;18.00;;
26598;SDS011;14240;51.064;16.612;2023-02-28T06:43:56;38.05;;;18.75;;
26598;SDS011;14240;51.064;16.612;2023-02-28T06:46:22;46.00;;;18.95;;
26598;SDS011;14240;51.064;16.612;2023-02-28T06:48:48;42.45;;;17.88;;
26598;SDS011;14240;51.064;16.612;2023-02-28T06:51:15;38.38;;;17.67;;
26598;SDS011;14240;51.064;16.612;2023-02-28T06:53:43;42.88;;;18.90;;
26598;SDS011;14240;51.064;16.612;2023-02-28T06:56:09;42.40;;;17.75;;
26598;SDS011;14240;51.064;16.612;2023-02-28T06:58:37;49.55;;;20.05;;
26598;SDS011;14240;51.064;16.612;2023-02-28T07:01:04;38.60;;;18.38;;
26598;SDS011;14240;51.064;16.612;2023-02-28T07:03:31;43.83;;;20.40;;
26598;SDS011;14240;51.064;16.612;2023-02-28T07:05:57;40.75;;;18.38;;
26598;SDS011;14240;51.064;16.612;2023-02-28T07:08:24;46.90;;;20.42;;
26598;SDS011;14240;51.064;16.612;2023-02-28T07:10:55;43.33;;;19.65;;
26598;SDS011;14240;51.064;16.612;2023-02-28T07:13:21;40.42;;;20.95;;
26598;SDS011;14240;51.064;16.612;2023-02-28T07:15:58;44.47;;;21.10;;
26598;SDS011;14240;51.064;16.612;2023-02-28T07:18:30;40.30;;;20.08;;
26598;SDS011;14240;51.064;16.612;2023-02-28T07:20:56;36.92;;;17.20;;
26598;SDS011;14240;51.064;16.612;2023-02-28T07:23:22;37.40;;;16.60;;
26598;SDS011;14240;51.064;16.612;2023-02-28T07:25:48;40.08;;;18.85;;
26598;SDS011;14240;51.064;16.612;2023-02-28T07:28:15;38.83;;;17.40;;
26598;SDS011;14240;51.064;16.612;2023-02-28T07:30:41;33.28;;;16.50;;
26598;SDS011;14240;51.064;16.612;2023-02-28T07:33:07;25.73;;;16.05;;
26598;SDS011;14240;51.064;16.612;2023-02-28T07:35:33;28.20;;;15.32;;
26598;SDS011;14240;51.064;16.612;2023-02-28T07:37:59;25.70;;;14.45;;
26598;SDS011;14240;51.064;16.612;2023-02-28T07:40:26;29.88;;;16.73;;
26598;SDS011;14240;51.064;16.612;2023-02-28T07:42:52;29.50;;;16.75;;
26598;SDS011;14240;51.064;16.612;2023-02-28T07:45:18;31.45;;;17.05;;
26598;SDS011;14240;51.064;16.612;2023-02-28T07:47:44;30.63;;;17.60;;
26598;SDS011;14240;51.064;16.612;2023-02-28T07:50:11;29.48;;;16.30;;
26598;SDS011;14240;51.064;16.612;2023-02-28T07:52:39;24.38;;;16.42;;
26598;SDS011;14240;51.064;16.612;2023-02-28T07:55:06;27.08;;;16.23;;
26598;SDS011;14240;51.064;16.612;2023-02-28T07:57:33;21.77;;;15.00;;
26598;SDS011;14240;51.064;16.612;2023-02-28T07:59:58;25.60;;;16.40;;
26598;SDS011;14240;51.064;16.612;2023-02-28T08:02:24;20.02;;;13.45;;
26598;SDS011;14240;51.064;16.612;2023-02-28T08:04:50;23.75;;;14.05;;
26598;SDS011;14240;51.064;16.612;2023-02-28T08:07:16;21.92;;;14.30;;
26598;SDS011;14240;51.064;16.612;2023-02-28T08:09:43;21.50;;;15.90;;
26598;SDS011;14240;51.064;16.612;2023-02-28T08:12:09;21.30;;;14.63;;
26598;SDS011;14240;51.064;16.612;2023-02-28T08:14:36;19.37;;;13.13;;
26598;SDS011;14240;51.064;16.612;2023-02-28T08:17:03;21.45;;;13.50;;
26598;SDS011;14240;51.064;16.612;2023-02-28T08:19:29;17.50;;;12.75;;
26598;SDS011;14240;51.064;16.612;2023-02-28T08:21:55;17.40;;;13.07;;
26598;SDS011;14240;51.064;16.612;2023-02-28T08:24:21;16.08;;;12.50;;
26598;SDS011;14240;51.064;16.612;2023-02-28T08:26:47;16.45;;;12.52;;
26598;SDS011;14240;51.064;16.612;2023-02-28T08:29:13;17.38;;;13.20;;
26598;SDS011;14240;51.064;16.612;2023-02-28T08:31:39;16.60;;;13.25;;
26598;SDS011;14240;51.064;16.612;2023-02-28T08:34:06;17.75;;;13.63;;
26598;SDS011;14240;51.064;16.612;2023-02-28T08:36:33;17.90;;;13.05;;
26598;SDS011;14240;51.064;16.612;2023-02-28T08:38:59;16.35;;;13.05;;
26598;SDS011;14240;51.064;16.612;2023-02-28T08:41:25;19.08;;;12.40;;
26598;SDS011;14240;51.064;16.612;2023-02-28T08:43:51;18.95;;;13.05;;
26598;SDS011;14240;51.064;16.612;2023-02-28T08:46:18;16.33;;;11.88;;
26598;SDS011;14240;51.064;16.612;2023-02-28T08:48:45;15.82;;;12.35;;
26598;SDS011;14240;51.064;16.612;2023-02-28T08:51:12;13.25;;;11.40;;
26598;SDS011;14240;51.064;16.612;2023-02-28T08:53:43;13.05;;;10.82;;
26598;SDS011;14240;51.064;16.612;2023-02-28T08:56:10;13.63;;;11.70;;
26598;SDS011;14240;51.064;16.612;2023-02-28T08:58:38;12.23;;;10.40;;
26598;SDS011;14240;51.064;16.612;2023-02-28T09:01:09;12.73;;;10.30;;
26598;SDS011;14240;51.064;16.612;2023-02-28T09:03:37;14.77;;;10.27;;
26598;SDS011;14240;51.064;16.612;2023-02-28T09:06:03;11.95;;;10.20;;
26598;SDS011;14240;51.064;16.612;2023-02-28T09:08:30;13.80;;;9.55;;
26598;SDS011;14240;51.064;16.612;2023-02-28T09:10:56;12.77;;;10.43;;
26598;SDS011;14240;51.064;16.612;2023-02-28T09:13:23;12.83;;;10.63;;
26598;SDS011;14240;51.064;16.612;2023-02-28T09:15:50;13.13;;;10.18;;
26598;SDS011;14240;51.064;16.612;2023-02-28T09:18:16;16.08;;;10.73;;
26598;SDS011;14240;51.064;16.612;2023-02-28T09:20:42;14.57;;;10.48;;
26598;SDS011;14240;51.064;16.612;2023-02-28T09:23:09;12.27;;;10.50;;
26598;SDS011;14240;51.064;16.612;2023-02-28T09:25:35;12.23;;;10.30;;
26598;SDS011;14240;51.064;16.612;2023-02-28T09:28:01;14.18;;;10.40;;
26598;SDS011;14240;51.064;16.612;2023-02-28T09:30:28;11.90;;;10.00;;
26598;SDS011;14240;51.064;16.612;2023-02-28T09:32:55;12.75;;;9.80;;
26598;SDS011;14240;51.064;16.612;2023-02-28T09:35:22;12.82;;;9.20;;
26598;SDS011;14240;51.064;16.612;2023-02-28T09:37:49;12.57;;;9.98;;
26598;SDS011;14240;51.064;16.612;2023-02-28T09:40:20;11.23;;;9.10;;
26598;SDS011;14240;51.064;16.612;2023-02-28T09:42:49;13.10;;;8.48;;
26598;SDS011;14240;51.064;16.612;2023-02-28T09:47:47;13.25;;;9.90;;
26598;SDS011;14240;51.064;16.612;2023-02-28T09:50:29;12.52;;;9.13;;
26598;SDS011;14240;51.064;16.612;2023-02-28T09:53:13;10.93;;;9.15;;
26598;SDS011;14240;51.064;16.612;2023-02-28T09:56:04;12.18;;;9.63;;
26598;SDS011;14240;51.064;16.612;2023-02-28T09:58:53;13.00;;;9.55;;
26598;SDS011;14240;51.064;16.612;2023-02-28T10:04:05;11.27;;;9.40;;
26598;SDS011;14240;51.064;16.612;2023-02-28T10:06:44;15.48;;;11.35;;
26598;SDS011;14240;51.064;16.612;2023-02-28T10:09:18;15.25;;;12.00;;
26598;SDS011;14240;51.064;16.612;2023-02-28T10:11:57;18.30;;;12.48;;
26598;SDS011;14240;51.064;16.612;2023-02-28T10:14:28;14.32;;;11.52;;
26598;SDS011;14240;51.064;16.612;2023-02-28T10:16:58;18.38;;;11.13;;
26598;SDS011;14240;51.064;16.612;2023-02-28T10:19:42;15.57;;;11.68;;
26598;SDS011;14240;51.064;16.612;2023-02-28T10:22:22;15.75;;;11.32;;
26598;SDS011;14240;51.064;16.612;2023-02-28T10:24:58;15.85;;;11.15;;
26598;SDS011;14240;51.064;16.612;2023-02-28T10:27:31;15.07;;;10.70;;
26598;SDS011;14240;51.064;16.612;2023-02-28T10:29:58;16.90;;;10.73;;
26598;SDS011;14240;51.064;16.612;2023-02-28T10:32:31;15.18;;;11.50;;
26598;SDS011;14240;51.064;16.612;2023-02-28T10:37:40;16.27;;;11.10;;
26598;SDS011;14240;51.064;16.612;2023-02-28T10:40:24;18.50;;;11.55;;
26598;SDS011;14240;51.064;16.612;2023-02-28T10:42:59;17.08;;;11.30;;
26598;SDS011;14240;51.064;16.612;2023-02-28T10:45:36;18.20;;;11.48;;
26598;SDS011;14240;51.064;16.612;2023-02-28T10:50:43;17.20;;;11.30;;
26598;SDS011;14240;51.064;16.612;2023-02-28T11:03:44;17.55;;;11.82;;
26598;SDS011;14240;51.064;16.612;2023-02-28T11:06:17;20.42;;;11.90;;
26598;SDS011;14240;51.064;16.612;2023-02-28T11:08:58;21.80;;;13.43;;
26598;SDS011;14240;51.064;16.612;2023-02-28T11:11:26;22.50;;;12.50;;
26598;SDS011;14240;51.064;16.612;2023-02-28T11:13:58;19.65;;;12.88;;
26598;SDS011;14240;51.064;16.612;2023-02-28T11:16:33;21.13;;;12.80;;
26598;SDS011;14240;51.064;16.612;2023-02-28T11:19:02;19.80;;;12.68;;
26598;SDS011;14240;51.064;16.612;2023-02-28T11:21:33;16.60;;;11.70;;
26598;SDS011;14240;51.064;16.612;2023-02-28T11:24:22;20.55;;;13.20;;
26598;SDS011;14240;51.064;16.612;2023-02-28T11:29:55;24.55;;;13.65;;
26598;SDS011;14240;51.064;16.612;2023-02-28T11:32:23;22.25;;;14.35;;
26598;SDS011;14240;51.064;16.612;2023-02-28T11:37:42;21.77;;;12.35;;
26598;SDS011;14240;51.064;16.612;2023-02-28T11:40:14;19.50;;;12.95;;
26598;SDS011;14240;51.064;16.612;2023-02-28T11:48:20;17.90;;;11.68;;
26598;SDS011;14240;51.064;16.612;2023-02-28T12:10:29;19.92;;;12.10;;
26598;SDS011;14240;51.064;16.612;2023-02-28T12:15:29;18.45;;;11.13;;
26598;SDS011;14240;51.064;16.612;2023-02-28T12:18:40;20.30;;;11.00;;
26598;SDS011;14240;51.064;16.612;2023-02-28T12:26:59;19.52;;;11.27;;
26598;SDS011;14240;51.064;16.612;2023-02-28T12:29:30;22.17;;;12.10;;
26598;SDS011;14240;51.064;16.612;2023-02-28T12:32:27;20.63;;;10.63;;
26598;SDS011;14240;51.064;16.612;2023-02-28T12:34:58;17.92;;;11.23;;
26598;SDS011;14240;51.064;16.612;2023-02-28T12:37:36;20.85;;;9.77;;
26598;SDS011;14240;51.064;16.612;2023-02-28T12:40:13;16.10;;;10.02;;
26598;SDS011;14240;51.064;16.612;2023-02-28T12:42:49;19.45;;;9.15;;
26598;SDS011;14240;51.064;16.612;2023-02-28T12:45:24;12.50;;;7.72;;
26598;SDS011;14240;51.064;16.612;2023-02-28T12:47:57;16.95;;;9.07;;
26598;SDS011;14240;51.064;16.612;2023-02-28T12:50:26;15.82;;;9.00;;
26598;SDS011;14240;51.064;16.612;2023-02-28T13:12:14;15.40;;;9.27;;
26598;SDS011;14240;51.064;16.612;2023-02-28T13:20:19;19.83;;;9.85;;
26598;SDS011;14240;51.064;16.612;2023-02-28T13:25:03;17.83;;;9.98;;
26598;SDS011;14240;51.064;16.612;2023-02-28T13:27:52;17.75;;;8.85;;
26598;SDS011;14240;51.064;16.612;2023-02-28T13:33:36;18.70;;;8.38;;
26598;SDS011;14240;51.064;16.612;2023-02-28T13:46:29;16.80;;;9.65;;
26598;SDS011;14240;51.064;16.612;2023-02-28T13:48:55;16.20;;;9.45;;
26598;SDS011;14240;51.064;16.612;2023-02-28T14:05:00;20.50;;;10.85;;
26598;SDS011;14240;51.064;16.612;2023-02-28T14:07:51;15.77;;;7.93;;
26598;SDS011;14240;51.064;16.612;2023-02-28T14:10:21;16.50;;;9.02;;
26598;SDS011;14240;51.064;16.612;2023-02-28T14:16:21;16.10;;;9.38;;
26598;SDS011;14240;51.064;16.612;2023-02-28T14:19:01;17.35;;;9.75;;
26598;SDS011;14240;51.064;16.612;2023-02-28T14:21:34;16.42;;;9.70;;
26598;SDS011;14240;51.064;16.612;2023-02-28T14:32:33;20.33;;;9.35;;
26598;SDS011;14240;51.064;16.612;2023-02-28T14:37:56;14.65;;;8.30;;
26598;SDS011;14240;51.064;16.612;2023-02-28T14:40:29;19.38;;;9.73;;
26598;SDS011;14240;51.064;16.612;2023-02-28T14:43:03;14.90;;;8.70;;
26598;SDS011;14240;51.064;16.612;2023-02-28T14:45:31;18.33;;;8.57;;
26598;SDS011;14240;51.064;16.612;2023-02-28T14:47:58;16.00;;;7.97;;
26598;SDS011;14240;51.064;16.612;2023-02-28T14:50:32;15.30;;;8.85;;
26598;SDS011;14240;51.064;16.612;2023-02-28T14:53:01;16.38;;;8.77;;
26598;SDS011;14240;51.064;16.612;2023-02-28T14:55:31;17.60;;;9.02;;
26598;SDS011;14240;51.064;16.612;2023-02-28T14:58:03;15.50;;;8.50;;
26598;SDS011;14240;51.064;16.612;2023-02-28T15:00:32;19.95;;;9.02;;
26598;SDS011;14240;51.064;16.612;2023-02-28T15:03:01;16.92;;;8.75;;
26598;SDS011;14240;51.064;16.612;2023-02-28T15:05:42;21.52;;;9.02;;
26598;SDS011;14240;51.064;16.612;2023-02-28T15:08:16;18.85;;;10.05;;
26598;SDS011;14240;51.064;16.612;2023-02-28T15:11:02;18.05;;;8.48;;
26598;SDS011;14240;51.064;16.612;2023-02-28T15:13:47;18.20;;;8.32;;
26598;SDS011;14240;51.064;16.612;2023-02-28T15:16:40;17.90;;;9.63;;
26598;SDS011;14240;51.064;16.612;2023-02-28T15:21:39;17.65;;;8.77;;
26598;SDS011;14240;51.064;16.612;2023-02-28T15:24:30;17.48;;;9.45;;
26598;SDS011;14240;51.064;16.612;2023-02-28T15:27:13;17.52;;;9.02;;
26598;SDS011;14240;51.064;16.612;2023-02-28T15:29:50;22.90;;;9.10;;
26598;SDS011;14240;51.064;16.612;2023-02-28T15:32:23;17.10;;;8.68;;
26598;SDS011;14240;51.064;16.612;2023-02-28T15:34:49;20.92;;;8.98;;
26598;SDS011;14240;51.064;16.612;2023-02-28T15:37:28;18.35;;;9.27;;
26598;SDS011;14240;51.064;16.612;2023-02-28T15:43:13;17.58;;;9.23;;
26598;SDS011;14240;51.064;16.612;2023-02-28T15:45:47;17.20;;;8.33;;
26598;SDS011;14240;51.064;16.612;2023-02-28T15:50:50;20.90;;;9.75;;
26598;SDS011;14240;51.064;16.612;2023-02-28T15:53:25;17.98;;;9.07;;
26598;SDS011;14240;51.064;16.612;2023-02-28T15:56:12;17.52;;;8.95;;
26598;SDS011;14240;51.064;16.612;2023-02-28T15:58:47;21.42;;;9.35;;
26598;SDS011;14240;51.064;16.612;2023-02-28T16:04:03;18.70;;;10.10;;
26598;SDS011;14240;51.064;16.612;2023-02-28T16:06:32;21.38;;;10.77;;
26598;SDS011;14240;51.064;16.612;2023-02-28T16:09:03;22.02;;;10.23;;
26598;SDS011;14240;51.064;16.612;2023-02-28T16:11:33;16.92;;;9.82;;
26598;SDS011;14240;51.064;16.612;2023-02-28T16:14:01;21.83;;;10.45;;
26598;SDS011;14240;51.064;16.612;2023-02-28T16:16:28;18.15;;;9.93;;
26598;SDS011;14240;51.064;16.612;2023-02-28T16:18:54;19.67;;;10.27;;
26598;SDS011;14240;51.064;16.612;2023-02-28T16:21:20;29.08;;;11.98;;
26598;SDS011;14240;51.064;16.612;2023-02-28T16:23:46;22.65;;;10.80;;
26598;SDS011;14240;51.064;16.612;2023-02-28T16:26:21;25.30;;;10.77;;
26598;SDS011;14240;51.064;16.612;2023-02-28T16:28:48;30.83;;;12.43;;
26598;SDS011;14240;51.064;16.612;2023-02-28T16:31:16;32.70;;;12.80;;
26598;SDS011;14240;51.064;16.612;2023-02-28T16:33:43;33.33;;;15.45;;
26598;SDS011;14240;51.064;16.612;2023-02-28T16:36:16;30.80;;;14.50;;
26598;SDS011;14240;51.064;16.612;2023-02-28T16:38:44;37.53;;;15.75;;
26598;SDS011;14240;51.064;16.612;2023-02-28T16:41:11;30.00;;;13.95;;
26598;SDS011;14240;51.064;16.612;2023-02-28T16:43:44;25.60;;;12.05;;
26598;SDS011;14240;51.064;16.612;2023-02-28T16:46:12;31.80;;;12.57;;
26598;SDS011;14240;51.064;16.612;2023-02-28T16:48:38;28.08;;;12.13;;
26598;SDS011;14240;51.064;16.612;2023-02-28T16:51:05;21.95;;;11.82;;
26598;SDS011;14240;51.064;16.612;2023-02-28T16:53:33;23.95;;;11.70;;
26598;SDS011;14240;51.064;16.612;2023-02-28T16:56:00;24.40;;;12.70;;
26598;SDS011;14240;51.064;16.612;2023-02-28T17:00:53;28.73;;;10.15;;
26598;SDS011;14240;51.064;16.612;2023-02-28T17:03:21;24.90;;;12.10;;
26598;SDS011;14240;51.064;16.612;2023-02-28T17:05:49;33.40;;;14.35;;
26598;SDS011;14240;51.064;16.612;2023-02-28T17:08:15;37.45;;;16.63;;
26598;SDS011;14240;51.064;16.612;2023-02-28T17:10:41;41.85;;;16.90;;
26598;SDS011;14240;51.064;16.612;2023-02-28T17:13:07;41.08;;;17.50;;
26598;SDS011;14240;51.064;16.612;2023-02-28T17:15:34;38.75;;;17.63;;
26598;SDS011;14240;51.064;16.612;2023-02-28T17:18:01;43.08;;;18.38;;
26598;SDS011;14240;51.064;16.612;2023-02-28T17:20:27;41.40;;;16.02;;
26598;SDS011;14240;51.064;16.612;2023-02-28T17:22:53;55.03;;;20.75;;
26598;SDS011;14240;51.064;16.612;2023-02-28T17:25:19;45.40;;;19.17;;
26598;SDS011;14240;51.064;16.612;2023-02-28T17:27:46;56.53;;;19.60;;
26598;SDS011;14240;51.064;16.612;2023-02-28T17:30:16;47.30;;;19.60;;
26598;SDS011;14240;51.064;16.612;2023-02-28T17:32:44;40.95;;;16.80;;
26598;SDS011;14240;51.064;16.612;2023-02-28T17:35:10;43.08;;;17.67;;
26598;SDS011;14240;51.064;16.612;2023-02-28T17:37:36;50.33;;;18.55;;
26598;SDS011;14240;51.064;16.612;2023-02-28T17:40:03;49.65;;;18.02;;
26598;SDS011;14240;51.064;16.612;2023-02-28T17:42:30;43.47;;;17.85;;